sensor_id;sensor_type;location;lat;lon;timestamp;P1;durP1;ratioP1;P2;durP2;ratioP2
6342;SDS011;3204;42.698;23.298;2023-07-13T00:01:12;15.38;;;9.88;;
6342;SDS011;3204;42.698;23.298;2023-07-13T00:03:38;16.98;;;9.27;;
6342;SDS011;3204;42.698;23.298;2023-07-13T00:06:06;8.80;;;8.10;;
6342;SDS011;3204;42.698;23.298;2023-07-13T00:08:33;11.60;;;8.10;;
6342;SDS011;3204;42.698;23.298;2023-07-13T00:11:00;8.40;;;7.35;;
6342;SDS011;3204;42.698;23.298;2023-07-13T00:13:29;8.35;;;7.63;;
6342;SDS011;3204;42.698;23.298;2023-07-13T00:15:56;8.80;;;8.20;;
6342;SDS011;3204;42.698;23.298;2023-07-13T00:18:23;8.30;;;7.70;;
6342;SDS011;3204;42.698;23.298;2023-07-13T00:20:48;7.65;;;7.05;;
6342;SDS011;3204;42.698;23.298;2023-07-13T00:23:14;8.73;;;7.82;;
6342;SDS011;3204;42.698;23.298;2023-07-13T00:25:40;10.77;;;7.78;;
6342;SDS011;3204;42.698;23.298;2023-07-13T00:28:05;8.50;;;7.45;;
6342;SDS011;3204;42.698;23.298;2023-07-13T00:30:31;8.32;;;7.72;;
6342;SDS011;3204;42.698;23.298;2023-07-13T00:32:57;8.25;;;7.55;;
6342;SDS011;3204;42.698;23.298;2023-07-13T00:35:22;7.70;;;7.22;;
6342;SDS011;3204;42.698;23.298;2023-07-13T00:37:48;10.02;;;7.50;;
6342;SDS011;3204;42.698;23.298;2023-07-13T00:40:14;11.30;;;7.55;;
6342;SDS011;3204;42.698;23.298;2023-07-13T00:42:40;7.68;;;7.10;;
6342;SDS011;3204;42.698;23.298;2023-07-13T00:47:38;8.20;;;7.47;;
6342;SDS011;3204;42.698;23.298;2023-07-13T00:50:08;8.40;;;7.60;;
6342;SDS011;3204;42.698;23.298;2023-07-13T00:52:40;7.97;;;7.13;;
6342;SDS011;3204;42.698;23.298;2023-07-13T00:55:08;8.30;;;7.32;;
6342;SDS011;3204;42.698;23.298;2023-07-13T00:57:34;8.82;;;7.57;;
6342;SDS011;3204;42.698;23.298;2023-07-13T01:00:00;8.20;;;7.55;;
6342;SDS011;3204;42.698;23.298;2023-07-13T01:02:30;8.52;;;7.72;;
6342;SDS011;3204;42.698;23.298;2023-07-13T01:04:56;7.90;;;7.30;;
6342;SDS011;3204;42.698;23.298;2023-07-13T01:07:21;8.45;;;7.80;;
6342;SDS011;3204;42.698;23.298;2023-07-13T01:09:47;8.93;;;7.70;;
6342;SDS011;3204;42.698;23.298;2023-07-13T01:12:12;17.52;;;8.18;;
6342;SDS011;3204;42.698;23.298;2023-07-13T01:14:38;8.90;;;7.35;;
6342;SDS011;3204;42.698;23.298;2023-07-13T01:17:04;8.25;;;7.45;;
6342;SDS011;3204;42.698;23.298;2023-07-13T01:19:34;8.63;;;8.10;;
6342;SDS011;3204;42.698;23.298;2023-07-13T01:22:03;8.75;;;8.10;;
6342;SDS011;3204;42.698;23.298;2023-07-13T01:24:34;8.27;;;7.45;;
6342;SDS011;3204;42.698;23.298;2023-07-13T01:27:04;8.68;;;7.90;;
6342;SDS011;3204;42.698;23.298;2023-07-13T01:29:31;8.75;;;8.05;;
6342;SDS011;3204;42.698;23.298;2023-07-13T01:31:57;10.30;;;7.38;;
6342;SDS011;3204;42.698;23.298;2023-07-13T01:34:25;9.00;;;8.15;;
6342;SDS011;3204;42.698;23.298;2023-07-13T01:36:51;8.65;;;7.80;;
6342;SDS011;3204;42.698;23.298;2023-07-13T01:39:18;8.18;;;7.55;;
6342;SDS011;3204;42.698;23.298;2023-07-13T01:41:47;9.13;;;8.43;;
6342;SDS011;3204;42.698;23.298;2023-07-13T01:44:12;8.38;;;7.55;;
6342;SDS011;3204;42.698;23.298;2023-07-13T01:46:38;8.43;;;7.63;;
6342;SDS011;3204;42.698;23.298;2023-07-13T01:49:03;8.00;;;7.25;;
6342;SDS011;3204;42.698;23.298;2023-07-13T01:51:29;8.52;;;7.47;;
6342;SDS011;3204;42.698;23.298;2023-07-13T01:53:54;8.07;;;7.28;;
6342;SDS011;3204;42.698;23.298;2023-07-13T01:56:20;8.23;;;7.63;;
6342;SDS011;3204;42.698;23.298;2023-07-13T01:58:45;7.93;;;7.35;;
6342;SDS011;3204;42.698;23.298;2023-07-13T02:01:11;8.07;;;7.32;;
6342;SDS011;3204;42.698;23.298;2023-07-13T02:03:36;9.30;;;8.57;;
6342;SDS011;3204;42.698;23.298;2023-07-13T02:06:02;7.68;;;7.25;;
6342;SDS011;3204;42.698;23.298;2023-07-13T02:08:28;9.07;;;8.38;;
6342;SDS011;3204;42.698;23.298;2023-07-13T02:10:54;8.82;;;7.72;;
6342;SDS011;3204;42.698;23.298;2023-07-13T02:13:19;12.52;;;8.40;;
6342;SDS011;3204;42.698;23.298;2023-07-13T02:15:45;9.00;;;8.23;;
6342;SDS011;3204;42.698;23.298;2023-07-13T02:18:10;9.35;;;7.60;;
6342;SDS011;3204;42.698;23.298;2023-07-13T02:20:36;9.52;;;8.02;;
6342;SDS011;3204;42.698;23.298;2023-07-13T02:23:01;8.60;;;7.90;;
6342;SDS011;3204;42.698;23.298;2023-07-13T02:25:27;7.88;;;7.38;;
6342;SDS011;3204;42.698;23.298;2023-07-13T02:27:52;9.88;;;7.85;;
6342;SDS011;3204;42.698;23.298;2023-07-13T02:30:18;9.07;;;8.10;;
6342;SDS011;3204;42.698;23.298;2023-07-13T02:32:44;9.00;;;8.10;;
6342;SDS011;3204;42.698;23.298;2023-07-13T02:35:09;10.82;;;8.77;;
6342;SDS011;3204;42.698;23.298;2023-07-13T02:37:35;15.32;;;9.32;;
6342;SDS011;3204;42.698;23.298;2023-07-13T02:40:01;13.70;;;8.75;;
6342;SDS011;3204;42.698;23.298;2023-07-13T02:42:33;10.10;;;8.10;;
6342;SDS011;3204;42.698;23.298;2023-07-13T02:44:58;11.35;;;9.07;;
6342;SDS011;3204;42.698;23.298;2023-07-13T02:47:24;12.88;;;8.55;;
6342;SDS011;3204;42.698;23.298;2023-07-13T02:49:49;13.75;;;8.40;;
6342;SDS011;3204;42.698;23.298;2023-07-13T02:52:15;10.40;;;7.97;;
6342;SDS011;3204;42.698;23.298;2023-07-13T02:54:40;9.20;;;8.35;;
6342;SDS011;3204;42.698;23.298;2023-07-13T02:57:06;9.85;;;8.60;;
6342;SDS011;3204;42.698;23.298;2023-07-13T02:59:31;18.02;;;8.35;;
6342;SDS011;3204;42.698;23.298;2023-07-13T03:01:57;11.98;;;8.70;;
6342;SDS011;3204;42.698;23.298;2023-07-13T03:04:22;11.48;;;8.23;;
6342;SDS011;3204;42.698;23.298;2023-07-13T03:06:48;13.38;;;8.65;;
6342;SDS011;3204;42.698;23.298;2023-07-13T03:09:14;13.05;;;8.65;;
6342;SDS011;3204;42.698;23.298;2023-07-13T03:11:39;19.15;;;9.65;;
6342;SDS011;3204;42.698;23.298;2023-07-13T03:14:05;17.05;;;9.07;;
6342;SDS011;3204;42.698;23.298;2023-07-13T03:16:30;14.20;;;8.95;;
6342;SDS011;3204;42.698;23.298;2023-07-13T03:18:55;19.95;;;9.35;;
6342;SDS011;3204;42.698;23.298;2023-07-13T03:21:21;14.40;;;9.48;;
6342;SDS011;3204;42.698;23.298;2023-07-13T03:23:46;10.85;;;8.80;;
6342;SDS011;3204;42.698;23.298;2023-07-13T03:26:13;15.35;;;9.57;;
6342;SDS011;3204;42.698;23.298;2023-07-13T03:28:41;15.75;;;9.57;;
6342;SDS011;3204;42.698;23.298;2023-07-13T03:31:08;16.70;;;8.80;;
6342;SDS011;3204;42.698;23.298;2023-07-13T03:33:35;14.88;;;9.63;;
6342;SDS011;3204;42.698;23.298;2023-07-13T03:36:02;16.75;;;9.50;;
6342;SDS011;3204;42.698;23.298;2023-07-13T03:38:28;16.00;;;10.30;;
6342;SDS011;3204;42.698;23.298;2023-07-13T03:40:54;17.52;;;9.55;;
6342;SDS011;3204;42.698;23.298;2023-07-13T03:43:19;26.98;;;10.02;;
6342;SDS011;3204;42.698;23.298;2023-07-13T03:45:45;19.27;;;10.23;;
6342;SDS011;3204;42.698;23.298;2023-07-13T03:48:11;15.48;;;9.90;;
6342;SDS011;3204;42.698;23.298;2023-07-13T03:50:37;12.00;;;10.07;;
6342;SDS011;3204;42.698;23.298;2023-07-13T03:53:03;12.13;;;10.70;;
6342;SDS011;3204;42.698;23.298;2023-07-13T03:55:29;13.13;;;9.95;;
6342;SDS011;3204;42.698;23.298;2023-07-13T03:57:57;12.45;;;10.48;;
6342;SDS011;3204;42.698;23.298;2023-07-13T04:00:25;20.05;;;10.27;;
6342;SDS011;3204;42.698;23.298;2023-07-13T04:02:50;12.68;;;9.68;;
6342;SDS011;3204;42.698;23.298;2023-07-13T04:05:16;11.60;;;10.40;;
6342;SDS011;3204;42.698;23.298;2023-07-13T04:07:41;12.07;;;9.55;;
6342;SDS011;3204;42.698;23.298;2023-07-13T04:10:07;12.82;;;10.15;;
6342;SDS011;3204;42.698;23.298;2023-07-13T04:12:33;13.07;;;10.73;;
6342;SDS011;3204;42.698;23.298;2023-07-13T04:14:58;12.15;;;9.80;;
6342;SDS011;3204;42.698;23.298;2023-07-13T04:17:24;12.85;;;11.18;;
6342;SDS011;3204;42.698;23.298;2023-07-13T04:19:49;13.68;;;10.98;;
6342;SDS011;3204;42.698;23.298;2023-07-13T04:22:15;19.42;;;11.55;;
6342;SDS011;3204;42.698;23.298;2023-07-13T04:24:41;16.88;;;10.75;;
6342;SDS011;3204;42.698;23.298;2023-07-13T04:27:06;18.77;;;11.07;;
6342;SDS011;3204;42.698;23.298;2023-07-13T04:29:32;12.63;;;10.77;;
6342;SDS011;3204;42.698;23.298;2023-07-13T04:31:58;15.80;;;11.65;;
6342;SDS011;3204;42.698;23.298;2023-07-13T04:34:23;14.02;;;10.45;;
6342;SDS011;3204;42.698;23.298;2023-07-13T04:36:49;14.70;;;11.50;;
6342;SDS011;3204;42.698;23.298;2023-07-13T04:39:15;12.52;;;10.65;;
6342;SDS011;3204;42.698;23.298;2023-07-13T04:41:40;11.90;;;10.65;;
6342;SDS011;3204;42.698;23.298;2023-07-13T04:44:06;16.55;;;10.80;;
6342;SDS011;3204;42.698;23.298;2023-07-13T04:46:31;13.30;;;11.88;;
6342;SDS011;3204;42.698;23.298;2023-07-13T04:48:57;11.75;;;10.60;;
6342;SDS011;3204;42.698;23.298;2023-07-13T04:51:23;15.38;;;10.80;;
6342;SDS011;3204;42.698;23.298;2023-07-13T04:53:49;13.10;;;11.85;;
6342;SDS011;3204;42.698;23.298;2023-07-13T04:56:14;13.25;;;10.98;;
6342;SDS011;3204;42.698;23.298;2023-07-13T04:58:40;13.45;;;11.45;;
6342;SDS011;3204;42.698;23.298;2023-07-13T05:01:06;13.55;;;10.85;;
6342;SDS011;3204;42.698;23.298;2023-07-13T05:03:32;11.68;;;10.68;;
6342;SDS011;3204;42.698;23.298;2023-07-13T05:06:02;13.10;;;11.63;;
6342;SDS011;3204;42.698;23.298;2023-07-13T05:08:29;16.67;;;11.57;;
6342;SDS011;3204;42.698;23.298;2023-07-13T05:10:54;12.88;;;10.98;;
6342;SDS011;3204;42.698;23.298;2023-07-13T05:13:20;11.93;;;10.90;;
6342;SDS011;3204;42.698;23.298;2023-07-13T05:15:47;13.13;;;11.57;;
6342;SDS011;3204;42.698;23.298;2023-07-13T05:18:21;14.98;;;10.65;;
6342;SDS011;3204;42.698;23.298;2023-07-13T05:20:46;14.85;;;11.65;;
6342;SDS011;3204;42.698;23.298;2023-07-13T05:23:12;11.63;;;10.45;;
6342;SDS011;3204;42.698;23.298;2023-07-13T05:25:37;12.40;;;11.23;;
6342;SDS011;3204;42.698;23.298;2023-07-13T05:28:03;11.50;;;10.70;;
6342;SDS011;3204;42.698;23.298;2023-07-13T05:30:29;11.60;;;10.52;;
6342;SDS011;3204;42.698;23.298;2023-07-13T05:32:54;12.70;;;11.10;;
6342;SDS011;3204;42.698;23.298;2023-07-13T05:35:20;13.48;;;11.32;;
6342;SDS011;3204;42.698;23.298;2023-07-13T05:37:45;13.10;;;11.98;;
6342;SDS011;3204;42.698;23.298;2023-07-13T05:40:11;12.73;;;10.50;;
6342;SDS011;3204;42.698;23.298;2023-07-13T05:42:36;13.70;;;10.80;;
6342;SDS011;3204;42.698;23.298;2023-07-13T05:45:02;14.65;;;11.75;;
6342;SDS011;3204;42.698;23.298;2023-07-13T05:47:27;11.95;;;10.85;;
6342;SDS011;3204;42.698;23.298;2023-07-13T05:49:53;15.45;;;11.65;;
6342;SDS011;3204;42.698;23.298;2023-07-13T05:52:18;13.27;;;11.45;;
6342;SDS011;3204;42.698;23.298;2023-07-13T05:54:44;14.55;;;11.65;;
6342;SDS011;3204;42.698;23.298;2023-07-13T05:57:10;12.60;;;10.88;;
6342;SDS011;3204;42.698;23.298;2023-07-13T05:59:35;16.52;;;11.52;;
6342;SDS011;3204;42.698;23.298;2023-07-13T06:02:01;13.43;;;11.95;;
6342;SDS011;3204;42.698;23.298;2023-07-13T06:04:26;13.98;;;11.73;;
6342;SDS011;3204;42.698;23.298;2023-07-13T06:06:51;17.25;;;11.82;;
6342;SDS011;3204;42.698;23.298;2023-07-13T06:09:17;12.27;;;11.13;;
6342;SDS011;3204;42.698;23.298;2023-07-13T06:11:43;12.77;;;11.25;;
6342;SDS011;3204;42.698;23.298;2023-07-13T06:14:08;18.02;;;13.45;;
6342;SDS011;3204;42.698;23.298;2023-07-13T06:16:34;21.48;;;12.02;;
6342;SDS011;3204;42.698;23.298;2023-07-13T06:19:00;11.93;;;10.98;;
6342;SDS011;3204;42.698;23.298;2023-07-13T06:21:25;13.70;;;11.75;;
6342;SDS011;3204;42.698;23.298;2023-07-13T06:23:52;13.35;;;11.85;;
6342;SDS011;3204;42.698;23.298;2023-07-13T06:26:19;14.10;;;11.48;;
6342;SDS011;3204;42.698;23.298;2023-07-13T06:28:45;18.00;;;11.80;;
6342;SDS011;3204;42.698;23.298;2023-07-13T06:31:11;13.80;;;11.02;;
6342;SDS011;3204;42.698;23.298;2023-07-13T06:33:38;16.67;;;11.90;;
6342;SDS011;3204;42.698;23.298;2023-07-13T06:36:04;12.70;;;11.30;;
6342;SDS011;3204;42.698;23.298;2023-07-13T06:38:32;15.60;;;11.48;;
6342;SDS011;3204;42.698;23.298;2023-07-13T06:40:58;15.43;;;12.43;;
6342;SDS011;3204;42.698;23.298;2023-07-13T06:43:23;12.55;;;11.38;;
6342;SDS011;3204;42.698;23.298;2023-07-13T06:45:50;15.80;;;11.65;;
6342;SDS011;3204;42.698;23.298;2023-07-13T06:48:16;15.05;;;12.43;;
6342;SDS011;3204;42.698;23.298;2023-07-13T06:50:42;15.40;;;10.88;;
6342;SDS011;3204;42.698;23.298;2023-07-13T06:53:08;19.73;;;11.63;;
6342;SDS011;3204;42.698;23.298;2023-07-13T06:55:34;17.73;;;12.07;;
6342;SDS011;3204;42.698;23.298;2023-07-13T06:58:00;19.90;;;12.88;;
6342;SDS011;3204;42.698;23.298;2023-07-13T07:00:25;15.43;;;11.15;;
6342;SDS011;3204;42.698;23.298;2023-07-13T07:02:51;17.65;;;10.73;;
6342;SDS011;3204;42.698;23.298;2023-07-13T07:05:16;14.73;;;11.65;;
6342;SDS011;3204;42.698;23.298;2023-07-13T07:07:42;15.63;;;11.68;;
6342;SDS011;3204;42.698;23.298;2023-07-13T07:10:07;13.07;;;11.77;;
6342;SDS011;3204;42.698;23.298;2023-07-13T07:12:33;17.42;;;11.63;;
6342;SDS011;3204;42.698;23.298;2023-07-13T07:14:59;12.63;;;10.50;;
6342;SDS011;3204;42.698;23.298;2023-07-13T07:17:24;14.57;;;10.98;;
6342;SDS011;3204;42.698;23.298;2023-07-13T07:19:51;15.52;;;11.45;;
6342;SDS011;3204;42.698;23.298;2023-07-13T07:22:16;22.10;;;12.50;;
6342;SDS011;3204;42.698;23.298;2023-07-13T07:24:41;13.50;;;11.95;;
6342;SDS011;3204;42.698;23.298;2023-07-13T07:27:07;15.82;;;11.52;;
6342;SDS011;3204;42.698;23.298;2023-07-13T07:29:32;20.17;;;12.02;;
6342;SDS011;3204;42.698;23.298;2023-07-13T07:31:58;12.63;;;10.48;;
6342;SDS011;3204;42.698;23.298;2023-07-13T07:34:25;16.00;;;11.55;;
6342;SDS011;3204;42.698;23.298;2023-07-13T07:36:50;15.93;;;10.63;;
6342;SDS011;3204;42.698;23.298;2023-07-13T07:39:16;12.32;;;10.90;;
6342;SDS011;3204;42.698;23.298;2023-07-13T07:41:41;11.95;;;10.80;;
6342;SDS011;3204;42.698;23.298;2023-07-13T07:44:07;12.20;;;11.13;;
6342;SDS011;3204;42.698;23.298;2023-07-13T07:46:34;11.70;;;10.60;;
6342;SDS011;3204;42.698;23.298;2023-07-13T07:49:00;16.73;;;10.93;;
6342;SDS011;3204;42.698;23.298;2023-07-13T07:51:25;14.55;;;11.80;;
6342;SDS011;3204;42.698;23.298;2023-07-13T07:53:51;19.15;;;11.68;;
6342;SDS011;3204;42.698;23.298;2023-07-13T07:56:16;13.00;;;10.93;;
6342;SDS011;3204;42.698;23.298;2023-07-13T07:58:42;12.40;;;11.25;;
6342;SDS011;3204;42.698;23.298;2023-07-13T08:01:08;12.73;;;10.50;;
6342;SDS011;3204;42.698;23.298;2023-07-13T08:03:33;14.80;;;10.98;;
6342;SDS011;3204;42.698;23.298;2023-07-13T08:05:59;12.93;;;10.82;;
6342;SDS011;3204;42.698;23.298;2023-07-13T08:08:24;12.50;;;11.15;;
6342;SDS011;3204;42.698;23.298;2023-07-13T08:10:50;13.85;;;11.05;;
6342;SDS011;3204;42.698;23.298;2023-07-13T08:13:15;13.07;;;10.60;;
6342;SDS011;3204;42.698;23.298;2023-07-13T08:15:41;11.68;;;10.60;;
6342;SDS011;3204;42.698;23.298;2023-07-13T08:18:06;11.25;;;10.25;;
6342;SDS011;3204;42.698;23.298;2023-07-13T08:20:36;11.18;;;9.93;;
6342;SDS011;3204;42.698;23.298;2023-07-13T08:23:02;11.15;;;9.88;;
6342;SDS011;3204;42.698;23.298;2023-07-13T08:25:27;11.10;;;9.93;;
6342;SDS011;3204;42.698;23.298;2023-07-13T08:27:53;14.18;;;9.65;;
6342;SDS011;3204;42.698;23.298;2023-07-13T08:30:18;17.65;;;9.85;;
6342;SDS011;3204;42.698;23.298;2023-07-13T08:32:44;10.93;;;9.82;;
6342;SDS011;3204;42.698;23.298;2023-07-13T08:35:09;10.52;;;9.43;;
6342;SDS011;3204;42.698;23.298;2023-07-13T08:37:35;10.70;;;9.60;;
6342;SDS011;3204;42.698;23.298;2023-07-13T08:40:00;15.77;;;10.02;;
6342;SDS011;3204;42.698;23.298;2023-07-13T08:47:39;10.65;;;9.73;;
6342;SDS011;3204;42.698;23.298;2023-07-13T08:50:13;19.77;;;9.90;;
6342;SDS011;3204;42.698;23.298;2023-07-13T08:52:42;12.00;;;9.90;;
6342;SDS011;3204;42.698;23.298;2023-07-13T08:55:12;10.25;;;9.40;;
6342;SDS011;3204;42.698;23.298;2023-07-13T08:57:43;10.70;;;9.57;;
6342;SDS011;3204;42.698;23.298;2023-07-13T09:00:12;14.02;;;10.27;;
6342;SDS011;3204;42.698;23.298;2023-07-13T09:02:57;11.00;;;9.02;;
6342;SDS011;3204;42.698;23.298;2023-07-13T09:10:44;10.65;;;9.50;;
6342;SDS011;3204;42.698;23.298;2023-07-13T09:15:57;11.05;;;9.55;;
6342;SDS011;3204;42.698;23.298;2023-07-13T09:18:38;13.02;;;9.75;;
6342;SDS011;3204;42.698;23.298;2023-07-13T09:21:08;11.52;;;10.23;;
6342;SDS011;3204;42.698;23.298;2023-07-13T09:23:37;16.20;;;10.60;;
6342;SDS011;3204;42.698;23.298;2023-07-13T09:26:11;14.98;;;10.75;;
6342;SDS011;3204;42.698;23.298;2023-07-13T09:28:46;13.30;;;11.00;;
6342;SDS011;3204;42.698;23.298;2023-07-13T09:33:43;15.65;;;11.27;;
6342;SDS011;3204;42.698;23.298;2023-07-13T09:36:19;11.80;;;10.38;;
6342;SDS011;3204;42.698;23.298;2023-07-13T09:38:49;12.57;;;10.80;;
6342;SDS011;3204;42.698;23.298;2023-07-13T09:41:39;13.82;;;10.35;;
6342;SDS011;3204;42.698;23.298;2023-07-13T09:44:42;12.68;;;11.35;;
6342;SDS011;3204;42.698;23.298;2023-07-13T09:47:17;13.00;;;10.27;;
6342;SDS011;3204;42.698;23.298;2023-07-13T09:49:44;10.93;;;9.75;;
6342;SDS011;3204;42.698;23.298;2023-07-13T09:52:11;10.13;;;9.18;;
6342;SDS011;3204;42.698;23.298;2023-07-13T09:54:39;12.23;;;9.10;;
6342;SDS011;3204;42.698;23.298;2023-07-13T09:57:13;14.82;;;10.60;;
6342;SDS011;3204;42.698;23.298;2023-07-13T09:59:44;11.55;;;10.10;;
6342;SDS011;3204;42.698;23.298;2023-07-13T10:02:27;15.63;;;7.40;;
6342;SDS011;3204;42.698;23.298;2023-07-13T10:04:55;6.55;;;5.43;;
6342;SDS011;3204;42.698;23.298;2023-07-13T10:07:23;7.53;;;5.70;;
6342;SDS011;3204;42.698;23.298;2023-07-13T10:09:53;9.00;;;5.45;;
6342;SDS011;3204;42.698;23.298;2023-07-13T10:12:19;6.30;;;5.80;;
6342;SDS011;3204;42.698;23.298;2023-07-13T10:14:45;7.13;;;5.55;;
6342;SDS011;3204;42.698;23.298;2023-07-13T10:17:13;5.95;;;5.32;;
6342;SDS011;3204;42.698;23.298;2023-07-13T10:19:39;7.28;;;5.20;;
6342;SDS011;3204;42.698;23.298;2023-07-13T10:22:15;5.25;;;4.82;;
6342;SDS011;3204;42.698;23.298;2023-07-13T10:24:49;8.75;;;5.30;;
6342;SDS011;3204;42.698;23.298;2023-07-13T10:27:17;5.75;;;5.20;;
6342;SDS011;3204;42.698;23.298;2023-07-13T10:29:56;5.68;;;5.15;;
6342;SDS011;3204;42.698;23.298;2023-07-13T10:32:26;6.45;;;5.60;;
6342;SDS011;3204;42.698;23.298;2023-07-13T10:34:52;6.45;;;5.75;;
6342;SDS011;3204;42.698;23.298;2023-07-13T10:37:24;7.82;;;4.95;;
6342;SDS011;3204;42.698;23.298;2023-07-13T10:39:55;6.57;;;5.13;;
6342;SDS011;3204;42.698;23.298;2023-07-13T10:42:29;6.63;;;5.45;;
6342;SDS011;3204;42.698;23.298;2023-07-13T10:44:58;9.73;;;5.28;;
6342;SDS011;3204;42.698;23.298;2023-07-13T10:47:24;11.10;;;5.43;;
6342;SDS011;3204;42.698;23.298;2023-07-13T10:49:52;5.20;;;4.80;;
6342;SDS011;3204;42.698;23.298;2023-07-13T10:58:10;5.65;;;4.88;;
6342;SDS011;3204;42.698;23.298;2023-07-13T11:03:35;5.40;;;4.90;;
6342;SDS011;3204;42.698;23.298;2023-07-13T11:06:30;7.97;;;4.97;;
6342;SDS011;3204;42.698;23.298;2023-07-13T11:09:43;5.15;;;4.80;;
6342;SDS011;3204;42.698;23.298;2023-07-13T11:14:42;5.82;;;5.32;;
6342;SDS011;3204;42.698;23.298;2023-07-13T11:22:44;5.55;;;5.07;;
6342;SDS011;3204;42.698;23.298;2023-07-13T11:25:43;5.03;;;4.50;;
6342;SDS011;3204;42.698;23.298;2023-07-13T11:30:38;5.53;;;5.00;;
6342;SDS011;3204;42.698;23.298;2023-07-13T11:38:35;5.75;;;5.25;;
6342;SDS011;3204;42.698;23.298;2023-07-13T11:41:04;9.40;;;5.18;;
6342;SDS011;3204;42.698;23.298;2023-07-13T11:43:41;5.93;;;5.43;;
6342;SDS011;3204;42.698;23.298;2023-07-13T11:46:14;6.88;;;4.97;;
6342;SDS011;3204;42.698;23.298;2023-07-13T11:48:47;7.32;;;5.38;;
6342;SDS011;3204;42.698;23.298;2023-07-13T11:51:35;6.10;;;5.60;;
6342;SDS011;3204;42.698;23.298;2023-07-13T11:54:03;8.00;;;5.45;;
6342;SDS011;3204;42.698;23.298;2023-07-13T11:56:33;13.00;;;5.53;;
6342;SDS011;3204;42.698;23.298;2023-07-13T11:59:02;7.60;;;5.03;;
6342;SDS011;3204;42.698;23.298;2023-07-13T12:01:31;7.85;;;5.50;;
6342;SDS011;3204;42.698;23.298;2023-07-13T12:04:02;6.43;;;5.55;;
6342;SDS011;3204;42.698;23.298;2023-07-13T12:06:30;13.25;;;6.30;;
6342;SDS011;3204;42.698;23.298;2023-07-13T12:09:01;6.32;;;5.65;;
6342;SDS011;3204;42.698;23.298;2023-07-13T12:11:42;8.70;;;5.45;;
6342;SDS011;3204;42.698;23.298;2023-07-13T12:14:15;8.40;;;5.30;;
6342;SDS011;3204;42.698;23.298;2023-07-13T12:16:41;9.15;;;5.00;;
6342;SDS011;3204;42.698;23.298;2023-07-13T12:19:14;6.13;;;4.85;;
6342;SDS011;3204;42.698;23.298;2023-07-13T12:21:44;5.25;;;4.95;;
6342;SDS011;3204;42.698;23.298;2023-07-13T12:24:14;5.65;;;5.20;;
6342;SDS011;3204;42.698;23.298;2023-07-13T12:26:41;7.72;;;5.50;;
6342;SDS011;3204;42.698;23.298;2023-07-13T12:29:07;9.40;;;5.30;;
6342;SDS011;3204;42.698;23.298;2023-07-13T12:31:37;11.35;;;4.95;;
6342;SDS011;3204;42.698;23.298;2023-07-13T12:34:10;5.60;;;5.13;;
6342;SDS011;3204;42.698;23.298;2023-07-13T12:36:38;7.28;;;4.95;;
6342;SDS011;3204;42.698;23.298;2023-07-13T12:39:23;6.25;;;5.07;;
6342;SDS011;3204;42.698;23.298;2023-07-13T12:41:53;9.88;;;5.20;;
6342;SDS011;3204;42.698;23.298;2023-07-13T12:44:34;7.70;;;4.90;;
6342;SDS011;3204;42.698;23.298;2023-07-13T12:47:09;6.13;;;5.03;;
6342;SDS011;3204;42.698;23.298;2023-07-13T12:49:42;7.72;;;4.50;;
6342;SDS011;3204;42.698;23.298;2023-07-13T12:52:13;6.05;;;4.65;;
6342;SDS011;3204;42.698;23.298;2023-07-13T12:54:41;6.43;;;5.13;;
6342;SDS011;3204;42.698;23.298;2023-07-13T12:57:08;8.13;;;4.93;;
6342;SDS011;3204;42.698;23.298;2023-07-13T12:59:41;5.32;;;4.72;;
6342;SDS011;3204;42.698;23.298;2023-07-13T13:02:53;5.93;;;5.20;;
6342;SDS011;3204;42.698;23.298;2023-07-13T13:04:58;5.82;;;5.13;;
6342;SDS011;3204;42.698;23.298;2023-07-13T13:07:24;7.43;;;4.93;;
6342;SDS011;3204;42.698;23.298;2023-07-13T13:09:51;5.03;;;4.55;;
6342;SDS011;3204;42.698;23.298;2023-07-13T13:12:18;7.55;;;4.72;;
6342;SDS011;3204;42.698;23.298;2023-07-13T13:14:44;5.85;;;5.03;;
6342;SDS011;3204;42.698;23.298;2023-07-13T13:17:16;6.07;;;4.72;;
6342;SDS011;3204;42.698;23.298;2023-07-13T13:19:49;11.02;;;5.00;;
6342;SDS011;3204;42.698;23.298;2023-07-13T13:22:15;8.48;;;4.65;;
6342;SDS011;3204;42.698;23.298;2023-07-13T13:24:40;8.57;;;5.57;;
6342;SDS011;3204;42.698;23.298;2023-07-13T13:27:08;9.05;;;4.68;;
6342;SDS011;3204;42.698;23.298;2023-07-13T13:29:41;7.97;;;4.75;;
6342;SDS011;3204;42.698;23.298;2023-07-13T13:32:09;5.25;;;4.47;;
6342;SDS011;3204;42.698;23.298;2023-07-13T13:34:37;5.15;;;4.63;;
6342;SDS011;3204;42.698;23.298;2023-07-13T13:37:02;8.93;;;4.90;;
6342;SDS011;3204;42.698;23.298;2023-07-13T13:39:33;9.43;;;5.30;;
6342;SDS011;3204;42.698;23.298;2023-07-13T13:42:00;5.30;;;4.80;;
6342;SDS011;3204;42.698;23.298;2023-07-13T13:44:26;6.85;;;4.90;;
6342;SDS011;3204;42.698;23.298;2023-07-13T13:46:52;6.90;;;4.88;;
6342;SDS011;3204;42.698;23.298;2023-07-13T13:49:21;8.73;;;5.00;;
6342;SDS011;3204;42.698;23.298;2023-07-13T13:51:49;5.97;;;4.43;;
6342;SDS011;3204;42.698;23.298;2023-07-13T13:54:16;12.35;;;5.45;;
6342;SDS011;3204;42.698;23.298;2023-07-13T13:56:44;9.38;;;4.38;;
6342;SDS011;3204;42.698;23.298;2023-07-13T13:59:10;10.27;;;5.00;;
6342;SDS011;3204;42.698;23.298;2023-07-13T14:01:37;5.70;;;4.28;;
6342;SDS011;3204;42.698;23.298;2023-07-13T14:04:03;9.68;;;5.05;;
6342;SDS011;3204;42.698;23.298;2023-07-13T14:06:30;5.55;;;4.85;;
6342;SDS011;3204;42.698;23.298;2023-07-13T14:08:56;6.32;;;4.60;;
6342;SDS011;3204;42.698;23.298;2023-07-13T14:11:22;5.25;;;4.70;;
6342;SDS011;3204;42.698;23.298;2023-07-13T14:13:52;6.88;;;4.82;;
6342;SDS011;3204;42.698;23.298;2023-07-13T14:16:20;9.32;;;5.43;;
6342;SDS011;3204;42.698;23.298;2023-07-13T14:18:48;11.27;;;5.20;;
6342;SDS011;3204;42.698;23.298;2023-07-13T14:21:18;7.55;;;4.32;;
6342;SDS011;3204;42.698;23.298;2023-07-13T14:23:45;8.45;;;5.25;;
6342;SDS011;3204;42.698;23.298;2023-07-13T14:26:13;8.82;;;4.75;;
6342;SDS011;3204;42.698;23.298;2023-07-13T14:28:47;8.45;;;4.22;;
6342;SDS011;3204;42.698;23.298;2023-07-13T14:31:15;8.05;;;4.32;;
6342;SDS011;3204;42.698;23.298;2023-07-13T14:33:42;9.27;;;5.00;;
6342;SDS011;3204;42.698;23.298;2023-07-13T14:38:48;8.57;;;4.80;;
6342;SDS011;3204;42.698;23.298;2023-07-13T14:41:14;5.57;;;4.95;;
6342;SDS011;3204;42.698;23.298;2023-07-13T14:43:40;6.18;;;5.28;;
6342;SDS011;3204;42.698;23.298;2023-07-13T14:46:07;6.60;;;4.78;;
6342;SDS011;3204;42.698;23.298;2023-07-13T14:48:43;10.15;;;5.30;;
6342;SDS011;3204;42.698;23.298;2023-07-13T14:51:09;5.57;;;4.93;;
6342;SDS011;3204;42.698;23.298;2023-07-13T14:53:35;7.57;;;5.45;;
6342;SDS011;3204;42.698;23.298;2023-07-13T14:56:08;8.15;;;5.30;;
6342;SDS011;3204;42.698;23.298;2023-07-13T14:58:35;5.25;;;4.75;;
6342;SDS011;3204;42.698;23.298;2023-07-13T15:01:00;5.97;;;5.38;;
6342;SDS011;3204;42.698;23.298;2023-07-13T15:03:26;8.02;;;5.65;;
6342;SDS011;3204;42.698;23.298;2023-07-13T15:05:51;7.80;;;5.07;;
6342;SDS011;3204;42.698;23.298;2023-07-13T15:08:18;5.00;;;4.60;;
6342;SDS011;3204;42.698;23.298;2023-07-13T15:10:43;7.55;;;4.75;;
6342;SDS011;3204;42.698;23.298;2023-07-13T15:15:47;7.95;;;5.45;;
6342;SDS011;3204;42.698;23.298;2023-07-13T15:18:17;6.18;;;5.15;;
6342;SDS011;3204;42.698;23.298;2023-07-13T15:20:45;8.52;;;4.90;;
6342;SDS011;3204;42.698;23.298;2023-07-13T15:23:13;7.68;;;4.93;;
6342;SDS011;3204;42.698;23.298;2023-07-13T15:25:41;6.70;;;5.22;;
6342;SDS011;3204;42.698;23.298;2023-07-13T15:28:08;7.40;;;4.80;;
6342;SDS011;3204;42.698;23.298;2023-07-13T15:30:36;10.15;;;5.30;;
6342;SDS011;3204;42.698;23.298;2023-07-13T15:33:12;9.27;;;5.28;;
6342;SDS011;3204;42.698;23.298;2023-07-13T15:35:39;6.85;;;5.13;;
6342;SDS011;3204;42.698;23.298;2023-07-13T15:38:20;8.70;;;5.10;;
6342;SDS011;3204;42.698;23.298;2023-07-13T15:40:47;5.40;;;4.65;;
6342;SDS011;3204;42.698;23.298;2023-07-13T15:43:15;5.25;;;4.60;;